createdAt,value
2017-07-30T00:01:20.042Z,70.60
2017-07-30T00:03:47.672Z,70.90
2017-07-30T00:06:15.774Z,70.70
2017-07-30T00:08:43.374Z,70.70
2017-07-30T00:11:11.661Z,71.10
2017-07-30T00:13:39.169Z,71.30
2017-07-30T00:18:35.534Z,71.30
2017-07-30T00:21:03.826Z,71.80
2017-07-30T00:23:31.395Z,71.40
2017-07-30T00:25:59.059Z,71.60
2017-07-30T00:28:26.558Z,71.60
2017-07-30T00:30:54.848Z,71.70
2017-07-30T00:33:23.124Z,72.50
2017-07-30T00:35:51.415Z,72.40
2017-07-30T00:38:19.004Z,72.10
2017-07-30T00:40:47.464Z,72.10
2017-07-30T00:43:15.120Z,72.20
2017-07-30T00:45:43.798Z,72.00
2017-07-30T00:48:11.463Z,71.80
2017-07-30T00:50:39.727Z,71.70
2017-07-30T00:53:07.392Z,71.90
2017-07-30T00:55:35.051Z,71.80
2017-07-30T00:58:02.716Z,71.80
2017-07-30T01:00:30.362Z,71.70
2017-07-30T01:02:58.023Z,71.80
2017-07-30T01:05:25.703Z,71.80
2017-07-30T01:07:53.227Z,71.80
2017-07-30T01:10:20.817Z,71.70
2017-07-30T01:12:49.102Z,71.60
2017-07-30T01:15:16.599Z,71.50
2017-07-30T01:17:45.274Z,71.60
2017-07-30T01:20:13.586Z,72.30
2017-07-30T01:22:41.545Z,71.60
2017-07-30T01:25:09.218Z,71.60
2017-07-30T01:27:36.875Z,71.60
2017-07-30T01:30:04.402Z,71.50
2017-07-30T01:32:32.654Z,71.50
2017-07-30T01:35:00.926Z,71.60
2017-07-30T01:37:28.523Z,71.60
2017-07-30T01:39:56.047Z,71.60
2017-07-30T01:42:24.310Z,72.20
2017-07-30T01:44:52.222Z,71.60
2017-07-30T01:47:19.722Z,71.90
2017-07-30T01:49:47.446Z,71.80
2017-07-30T01:52:14.956Z,71.70
2017-07-30T01:54:43.783Z,71.90
2017-07-30T01:57:12.038Z,72.00
2017-07-30T01:59:40.115Z,72.10
2017-07-30T02:02:07.778Z,72.10
2017-07-30T02:04:35.278Z,72.30
2017-07-30T02:07:03.939Z,72.10
2017-07-30T02:09:31.430Z,72.20
2017-07-30T02:11:59.024Z,72.20
2017-07-30T02:14:27.087Z,72.20
2017-07-30T02:16:55.164Z,72.00
2017-07-30T02:19:22.823Z,72.00
2017-07-30T02:21:50.482Z,72.00
2017-07-30T02:24:18.145Z,72.00
2017-07-30T02:26:45.789Z,72.20
2017-07-30T02:29:13.351Z,72.10
2017-07-30T02:34:09.783Z,71.90
2017-07-30T02:36:37.279Z,72.00
2017-07-30T02:39:04.795Z,72.00
2017-07-30T02:41:32.291Z,71.80
2017-07-30T02:43:59.816Z,71.80
2017-07-30T02:46:28.096Z,71.80
2017-07-30T02:48:55.695Z,71.80
2017-07-30T02:51:23.211Z,71.80
2017-07-30T02:53:51.689Z,71.90
2017-07-30T02:56:19.761Z,72.00
2017-07-30T02:58:47.670Z,71.90
2017-07-30T03:01:15.163Z,72.00
2017-07-30T03:03:42.725Z,72.00
2017-07-30T03:06:10.235Z,71.90
2017-07-30T03:08:37.837Z,71.80
2017-07-30T03:11:06.115Z,71.90
2017-07-30T03:13:33.722Z,72.20
2017-07-30T03:16:01.431Z,72.80
2017-07-30T03:18:28.927Z,72.40
2017-07-30T03:20:57.219Z,72.50
2017-07-30T03:23:24.827Z,72.50
2017-07-30T03:25:53.487Z,72.50
2017-07-30T03:28:21.156Z,72.40
2017-07-30T03:30:49.452Z,72.50
2017-07-30T03:33:16.942Z,72.40
2017-07-30T03:35:45.974Z,72.20
2017-07-30T03:38:13.635Z,72.10
2017-07-30T03:40:41.301Z,72.10
2017-07-30T03:43:08.790Z,72.00
2017-07-30T03:45:36.408Z,71.90
2017-07-30T03:48:03.935Z,71.70
2017-07-30T03:50:32.211Z,72.40
2017-07-30T03:53:00.510Z,72.40
2017-07-30T03:55:28.023Z,71.60
2017-07-30T03:57:56.322Z,71.60
2017-07-30T04:00:23.995Z,71.60
2017-07-30T04:02:51.652Z,71.60
2017-07-30T04:05:19.311Z,71.50
2017-07-30T04:07:47.586Z,71.60
2017-07-30T04:10:15.246Z,72.00
2017-07-30T04:12:42.747Z,72.20
2017-07-30T04:15:10.259Z,72.30
2017-07-30T04:17:37.820Z,72.30
2017-07-30T04:20:05.483Z,72.40
2017-07-30T04:22:33.079Z,72.60
2017-07-30T04:25:00.786Z,72.40
2017-07-30T04:27:28.296Z,72.50
2017-07-30T04:29:55.899Z,72.60
2017-07-30T04:32:23.558Z,72.50
2017-07-30T04:34:51.118Z,72.50
2017-07-30T04:37:18.680Z,72.70
2017-07-30T04:39:46.330Z,72.60
2017-07-30T04:42:13.822Z,72.40
2017-07-30T04:44:41.323Z,72.40
2017-07-30T04:47:08.838Z,72.30
2017-07-30T04:49:36.338Z,72.20
2017-07-30T04:52:03.854Z,71.90
2017-07-30T04:54:31.350Z,72.00
2017-07-30T04:56:58.875Z,71.80
2017-07-30T04:59:26.759Z,72.00
2017-07-30T05:01:54.280Z,71.80
2017-07-30T05:04:21.775Z,71.20
2017-07-30T05:06:49.291Z,70.30
2017-07-30T05:09:16.790Z,70.40
2017-07-30T05:11:45.084Z,70.90
2017-07-30T05:14:12.583Z,70.50
2017-07-30T05:16:40.867Z,70.40
2017-07-30T05:19:09.502Z,70.00
2017-07-30T05:24:05.884Z,69.70
2017-07-30T05:26:33.382Z,69.70
2017-07-30T05:29:00.898Z,69.70
2017-07-30T05:31:28.798Z,68.90
2017-07-30T05:33:56.464Z,68.90
2017-07-30T05:36:23.963Z,69.00
2017-07-30T05:38:51.893Z,69.10
2017-07-30T05:41:19.788Z,68.70
2017-07-30T05:43:47.315Z,68.50
2017-07-30T05:46:14.815Z,68.00
2017-07-30T05:48:43.116Z,69.20
2017-07-30T05:51:11.766Z,68.20
2017-07-30T05:53:39.370Z,67.70
2017-07-30T05:56:06.885Z,67.50
2017-07-30T05:58:34.383Z,67.50
2017-07-30T06:01:02.665Z,66.70
2017-07-30T06:03:30.555Z,65.90
2017-07-30T06:05:58.080Z,65.90
2017-07-30T06:08:27.082Z,65.30
2017-07-30T06:10:55.004Z,65.50
2017-07-30T06:13:23.281Z,64.90
2017-07-30T06:15:51.186Z,65.00
2017-07-30T06:18:19.449Z,64.20
2017-07-30T06:20:46.950Z,64.10
2017-07-30T06:23:14.475Z,64.00
2017-07-30T06:25:41.967Z,63.80
2017-07-30T06:30:38.358Z,64.10
2017-07-30T06:33:05.879Z,64.40
2017-07-30T06:35:33.778Z,64.60
2017-07-30T06:38:01.303Z,64.20
2017-07-30T06:40:28.799Z,64.50
2017-07-30T06:42:56.319Z,64.70
2017-07-30T06:45:23.824Z,64.70
2017-07-30T06:47:51.330Z,64.60
2017-07-30T06:50:18.854Z,64.50
2017-07-30T06:52:46.347Z,64.40
2017-07-30T06:55:13.870Z,64.50
2017-07-30T06:57:41.770Z,64.50
2017-07-30T07:00:10.054Z,64.80
2017-07-30T07:02:38.325Z,64.60
2017-07-30T07:05:05.959Z,64.60
2017-07-30T07:07:33.451Z,65.40
2017-07-30T07:10:00.974Z,66.00
2017-07-30T07:12:28.463Z,65.20
2017-07-30T07:14:55.994Z,65.80
2017-07-30T07:17:23.489Z,66.30
2017-07-30T07:19:50.983Z,66.40
2017-07-30T07:22:19.263Z,67.60
2017-07-30T07:24:47.531Z,66.50
2017-07-30T07:27:15.808Z,67.00
2017-07-30T07:29:44.570Z,66.30
2017-07-30T07:32:12.093Z,66.40
2017-07-30T07:34:40.013Z,66.60
2017-07-30T07:37:07.959Z,66.10
2017-07-30T07:39:36.232Z,65.70
2017-07-30T07:42:03.759Z,66.10
2017-07-30T07:44:31.270Z,65.60
2017-07-30T07:46:58.795Z,65.60
2017-07-30T07:49:26.295Z,65.60
2017-07-30T07:51:54.222Z,65.60
2017-07-30T07:54:22.532Z,66.30
2017-07-30T07:56:50.030Z,65.70
2017-07-30T07:59:18.687Z,64.80
2017-07-30T08:01:46.223Z,64.80
2017-07-30T08:04:15.337Z,64.10
2017-07-30T08:06:43.238Z,63.30
2017-07-30T08:11:40.542Z,63.30
2017-07-30T08:14:08.207Z,63.30
2017-07-30T08:16:36.470Z,62.40
2017-07-30T08:19:04.007Z,62.70
2017-07-30T08:21:32.279Z,63.60
2017-07-30T08:24:00.562Z,62.60
2017-07-30T08:26:28.078Z,61.10
2017-07-30T08:28:57.193Z,60.00
2017-07-30T08:31:24.694Z,59.60
2017-07-30T08:33:52.219Z,59.80
2017-07-30T08:36:21.266Z,59.00
2017-07-30T08:38:48.763Z,58.10
2017-07-30T08:41:17.427Z,56.30
2017-07-30T08:43:45.327Z,55.90
2017-07-30T08:46:14.126Z,56.30
2017-07-30T08:48:41.637Z,54.10
2017-07-30T08:51:10.291Z,52.50
2017-07-30T08:53:37.925Z,51.10
2017-07-30T08:56:06.207Z,48.90
2017-07-30T08:58:33.754Z,47.50
2017-07-30T09:01:01.287Z,47.30
2017-07-30T09:03:28.955Z,45.10
2017-07-30T09:05:56.616Z,44.90
2017-07-30T09:08:25.106Z,44.20
2017-07-30T09:10:53.170Z,43.20
2017-07-30T09:13:21.446Z,42.80
2017-07-30T09:15:49.103Z,42.10
2017-07-30T09:18:16.662Z,41.70
2017-07-30T09:20:44.155Z,41.80
2017-07-30T09:25:42.035Z,40.70
2017-07-30T09:28:09.539Z,40.90
2017-07-30T09:30:37.795Z,40.40
2017-07-30T09:33:05.388Z,40.40
2017-07-30T09:35:33.027Z,39.60
2017-07-30T09:38:00.683Z,40.10
2017-07-30T09:40:29.379Z,39.00
2017-07-30T09:42:57.022Z,39.50
2017-07-30T09:45:24.538Z,39.60
2017-07-30T09:47:52.034Z,38.90
2017-07-30T09:50:19.562Z,40.10
2017-07-30T09:52:48.567Z,39.70
2017-07-30T09:55:16.092Z,41.50
2017-07-30T09:57:43.607Z,42.20
2017-07-30T10:00:11.138Z,42.70
2017-07-30T10:02:38.635Z,42.30
2017-07-30T10:05:06.183Z,41.40
2017-07-30T10:07:33.678Z,40.50
2017-07-30T10:10:02.327Z,39.50
2017-07-30T10:12:29.854Z,38.80
2017-07-30T10:14:57.750Z,36.80
2017-07-30T10:17:26.035Z,35.80
2017-07-30T10:19:54.302Z,36.30
2017-07-30T10:22:22.584Z,35.50
2017-07-30T10:24:50.485Z,33.00
2017-07-30T10:27:18.008Z,35.00
2017-07-30T10:29:45.501Z,35.00
2017-07-30T10:32:13.026Z,35.30
2017-07-30T10:34:40.522Z,35.20
2017-07-30T10:37:08.042Z,34.60
2017-07-30T10:39:36.315Z,35.90
2017-07-30T10:42:04.610Z,33.70
2017-07-30T10:44:32.125Z,33.90
2017-07-30T10:46:59.614Z,36.00
2017-07-30T10:49:27.131Z,36.50
2017-07-30T10:51:54.629Z,35.50
2017-07-30T10:54:23.283Z,35.40
2017-07-30T10:59:19.658Z,36.00
2017-07-30T11:01:47.156Z,36.70
2017-07-30T11:04:14.719Z,37.80
2017-07-30T11:06:42.215Z,36.80
2017-07-30T11:09:10.118Z,36.60
2017-07-30T11:11:37.627Z,37.10
2017-07-30T11:14:05.547Z,36.90
2017-07-30T11:16:33.055Z,37.90
2017-07-30T11:19:01.734Z,36.30
2017-07-30T11:21:30.376Z,37.40
2017-07-30T11:23:57.879Z,37.50
2017-07-30T11:26:25.404Z,37.40
2017-07-30T11:28:52.906Z,40.70
2017-07-30T11:31:20.429Z,41.50
2017-07-30T11:33:48.699Z,41.60
2017-07-30T11:36:16.611Z,39.90
2017-07-30T11:38:44.107Z,39.80
2017-07-30T11:41:11.635Z,42.60
2017-07-30T11:43:39.122Z,42.60
2017-07-30T11:46:07.414Z,42.20
2017-07-30T11:48:35.689Z,44.00
2017-07-30T11:51:03.603Z,43.40
2017-07-30T11:53:31.867Z,40.60
2017-07-30T11:56:00.212Z,41.30
2017-07-30T11:58:27.711Z,42.50
2017-07-30T12:00:55.210Z,42.30
2017-07-30T12:03:23.575Z,43.30
2017-07-30T12:05:51.084Z,43.00
2017-07-30T12:08:18.596Z,43.60
2017-07-30T12:10:46.875Z,42.40
2017-07-30T12:13:14.389Z,43.10
2017-07-30T12:15:41.882Z,43.40
2017-07-30T12:20:38.271Z,41.10
2017-07-30T12:23:05.791Z,41.20
2017-07-30T12:25:33.337Z,42.80
2017-07-30T12:28:00.841Z,42.30
2017-07-30T12:30:28.363Z,41.60
2017-07-30T12:32:55.891Z,42.40
2017-07-30T12:35:24.178Z,42.70
2017-07-30T12:37:51.689Z,43.00
2017-07-30T12:40:19.219Z,41.70
2017-07-30T12:42:46.715Z,42.40
2017-07-30T12:45:15.002Z,42.40
2017-07-30T12:47:42.511Z,43.50
2017-07-30T12:50:10.048Z,41.60
2017-07-30T12:55:06.414Z,43.60
2017-07-30T12:57:34.298Z,43.20
2017-07-30T13:00:01.820Z,43.90
2017-07-30T13:02:29.339Z,43.80
2017-07-30T13:04:57.982Z,42.60
2017-07-30T13:07:26.647Z,43.10
2017-07-30T13:09:54.163Z,42.30
2017-07-30T13:12:22.446Z,43.90
2017-07-30T13:14:49.938Z,43.80
2017-07-30T13:17:17.457Z,44.20
2017-07-30T13:19:44.963Z,44.10
2017-07-30T13:22:13.256Z,43.80
2017-07-30T13:24:40.758Z,44.70
2017-07-30T13:27:08.271Z,44.80
2017-07-30T13:29:36.172Z,44.80
2017-07-30T13:32:03.707Z,44.40
2017-07-30T13:34:31.599Z,44.50
2017-07-30T13:36:59.099Z,44.80
2017-07-30T13:39:26.627Z,43.90
2017-07-30T13:44:23.412Z,42.00
2017-07-30T13:46:50.916Z,42.10
2017-07-30T13:49:18.856Z,44.30
2017-07-30T13:51:47.514Z,44.30
2017-07-30T13:54:15.043Z,43.80
2017-07-30T13:56:42.548Z,43.10
2017-07-30T13:59:11.564Z,42.00
2017-07-30T14:01:39.459Z,42.20
2017-07-30T14:04:08.497Z,41.50
2017-07-30T14:06:36.030Z,41.30
2017-07-30T14:09:04.576Z,42.40
2017-07-30T14:11:32.095Z,42.00
2017-07-30T14:14:00.362Z,41.00
2017-07-30T14:16:27.884Z,41.50
2017-07-30T14:18:56.511Z,40.30
2017-07-30T14:21:24.422Z,40.70
2017-07-30T14:23:52.787Z,41.10
2017-07-30T14:26:20.308Z,41.20
2017-07-30T14:28:47.910Z,41.50
2017-07-30T14:31:16.191Z,42.10
2017-07-30T14:33:43.685Z,42.70
2017-07-30T14:36:11.243Z,42.90
2017-07-30T14:38:38.756Z,43.50
2017-07-30T14:41:06.672Z,42.80
2017-07-30T14:43:34.179Z,42.40
2017-07-30T14:46:02.081Z,42.30
2017-07-30T14:48:29.991Z,41.40
2017-07-30T14:50:58.255Z,39.80
2017-07-30T14:53:26.547Z,40.00
2017-07-30T14:55:55.299Z,41.70
2017-07-30T14:58:22.851Z,42.30
2017-07-30T15:00:50.765Z,42.40
2017-07-30T15:03:18.286Z,40.80
2017-07-30T15:05:46.922Z,40.40
2017-07-30T15:08:15.210Z,41.20
2017-07-30T15:10:43.492Z,41.20
2017-07-30T15:13:11.751Z,41.30
2017-07-30T15:15:40.781Z,42.50
2017-07-30T15:18:08.279Z,43.40
2017-07-30T15:23:04.683Z,43.50
2017-07-30T15:25:32.221Z,43.30
2017-07-30T15:28:00.161Z,42.40
2017-07-30T15:30:28.843Z,42.20
2017-07-30T15:32:56.343Z,41.80
2017-07-30T15:37:52.739Z,40.60
2017-07-30T15:40:20.364Z,40.70
2017-07-30T15:42:47.880Z,40.60
2017-07-30T15:45:15.390Z,40.20
2017-07-30T15:47:42.920Z,41.50
2017-07-30T15:50:10.453Z,41.90
2017-07-30T15:52:39.099Z,40.40
2017-07-30T15:55:07.362Z,39.50
2017-07-30T15:57:35.646Z,41.10
2017-07-30T16:00:03.539Z,43.80
2017-07-30T16:02:31.824Z,42.90
2017-07-30T16:05:00.469Z,43.10
2017-07-30T16:07:28.758Z,43.50
2017-07-30T16:09:56.263Z,44.70
2017-07-30T16:12:24.544Z,45.10
2017-07-30T16:14:52.042Z,45.30
2017-07-30T16:17:19.567Z,46.00
2017-07-30T16:19:47.837Z,46.40
2017-07-30T16:22:16.114Z,45.30
2017-07-30T16:24:44.423Z,45.90
2017-07-30T16:27:11.990Z,45.30
2017-07-30T16:29:39.513Z,45.50
2017-07-30T16:32:07.788Z,45.50
2017-07-30T16:34:35.695Z,45.50
2017-07-30T16:37:03.248Z,45.80
2017-07-30T16:39:31.163Z,45.60
2017-07-30T16:41:59.434Z,46.40
2017-07-30T16:44:27.369Z,45.40
2017-07-30T16:46:54.880Z,46.40
2017-07-30T16:49:22.438Z,47.10
2017-07-30T16:51:51.039Z,46.30
2017-07-30T16:54:18.565Z,45.00
2017-07-30T16:56:46.136Z,45.50
2017-07-30T16:59:13.634Z,45.60
2017-07-30T17:01:41.155Z,45.50
2017-07-30T17:04:09.057Z,46.00
2017-07-30T17:06:37.716Z,46.40
2017-07-30T17:09:05.612Z,48.50
2017-07-30T17:11:33.528Z,49.70
2017-07-30T17:14:01.023Z,50.20
2017-07-30T17:16:28.951Z,51.50
2017-07-30T17:18:57.675Z,55.40
2017-07-30T17:21:25.969Z,55.50
2017-07-30T17:23:53.899Z,57.40
2017-07-30T17:26:22.539Z,59.00
2017-07-30T17:28:50.843Z,59.80
2017-07-30T17:31:19.116Z,62.60
2017-07-30T17:33:46.642Z,66.90
2017-07-30T17:36:15.282Z,65.40
2017-07-30T17:38:42.810Z,65.60
2017-07-30T17:41:10.307Z,67.30
2017-07-30T17:43:38.987Z,67.20
2017-07-30T17:46:06.487Z,66.90
2017-07-30T17:48:34.006Z,66.00
2017-07-30T17:53:30.370Z,69.20
2017-07-30T17:55:58.267Z,68.90
2017-07-30T17:58:26.160Z,68.80
2017-07-30T18:00:54.082Z,69.20
2017-07-30T18:03:22.361Z,69.70
2017-07-30T18:05:49.883Z,70.40
2017-07-30T18:08:17.391Z,70.60
2017-07-30T18:10:45.312Z,70.90
2017-07-30T18:13:13.213Z,70.80
2017-07-30T18:15:40.734Z,71.20
2017-07-30T18:18:08.239Z,70.30
2017-07-30T18:20:35.755Z,70.30
2017-07-30T18:23:03.654Z,69.60
2017-07-30T18:25:31.938Z,69.70
2017-07-30T18:27:59.839Z,69.50
2017-07-30T18:30:27.787Z,69.70
2017-07-30T18:32:55.322Z,70.00
2017-07-30T18:35:22.931Z,69.50
2017-07-30T18:37:51.309Z,70.10
2017-07-30T18:40:19.719Z,70.40
2017-07-30T18:42:47.318Z,70.80
2017-07-30T18:45:15.412Z,71.20
2017-07-30T18:47:43.696Z,72.20
2017-07-30T18:50:11.746Z,73.80
2017-07-30T18:52:39.815Z,74.20
2017-07-30T18:55:07.703Z,73.20
2017-07-30T18:57:35.630Z,72.90
2017-07-30T19:02:32.710Z,72.90
2017-07-30T19:05:01.185Z,73.00
2017-07-30T19:09:57.691Z,74.40
2017-07-30T19:12:25.330Z,75.00
2017-07-30T19:14:53.261Z,74.70
2017-07-30T19:17:20.947Z,74.60
2017-07-30T19:19:49.398Z,74.90
2017-07-30T19:22:16.995Z,73.60
2017-07-30T19:27:13.370Z,73.70
2017-07-30T19:29:40.903Z,73.60
2017-07-30T19:32:09.175Z,74.60
2017-07-30T19:34:36.704Z,73.80
2017-07-30T19:37:04.226Z,73.80
2017-07-30T19:39:31.883Z,73.50
2017-07-30T19:41:59.550Z,73.60
2017-07-30T19:44:27.630Z,73.70
2017-07-30T19:46:55.259Z,73.30
2017-07-30T19:49:22.811Z,73.10
2017-07-30T19:51:51.212Z,73.20
2017-07-30T19:54:19.138Z,73.30
2017-07-30T19:56:47.477Z,73.30
2017-07-30T19:59:15.071Z,73.60
2017-07-30T20:01:43.739Z,73.30
2017-07-30T20:04:13.051Z,73.30
2017-07-30T20:06:41.026Z,73.10
2017-07-30T20:09:08.852Z,73.10
2017-07-30T20:11:36.375Z,72.60
2017-07-30T20:14:04.035Z,72.70
2017-07-30T20:16:32.908Z,73.00
2017-07-30T20:19:00.415Z,72.90
2017-07-30T20:21:28.018Z,72.80
2017-07-30T20:23:55.679Z,72.90
2017-07-30T20:28:52.459Z,72.30
2017-07-30T20:31:19.946Z,72.00
2017-07-30T20:33:48.364Z,72.20
2017-07-30T20:36:15.867Z,72.40
2017-07-30T20:38:43.431Z,72.30
2017-07-30T20:43:39.911Z,71.90
2017-07-30T20:46:07.479Z,71.70
2017-07-30T20:48:36.501Z,71.90
2017-07-30T20:51:04.007Z,71.70
2017-07-30T20:53:31.675Z,72.00
2017-07-30T20:55:59.743Z,71.80
2017-07-30T20:58:27.675Z,72.00
2017-07-30T21:00:56.141Z,72.10
2017-07-30T21:05:52.889Z,72.40
2017-07-30T21:08:20.999Z,72.40
2017-07-30T21:10:48.532Z,72.30
2017-07-30T21:13:17.162Z,72.10
2017-07-30T21:15:44.692Z,72.30
2017-07-30T21:18:12.362Z,72.40
2017-07-30T21:20:39.895Z,72.40
2017-07-30T21:23:08.707Z,72.20
2017-07-30T21:25:36.223Z,72.10
2017-07-30T21:28:03.727Z,72.10
2017-07-30T21:30:31.251Z,71.90
2017-07-30T21:32:58.747Z,71.80
2017-07-30T21:35:26.271Z,71.40
2017-07-30T21:37:53.850Z,71.30
2017-07-30T21:40:21.902Z,71.80
2017-07-30T21:42:49.587Z,72.10
2017-07-30T21:45:18.062Z,72.10
2017-07-30T21:47:46.346Z,72.40
2017-07-30T21:50:14.392Z,72.00
2017-07-30T21:52:42.672Z,71.80
2017-07-30T21:55:10.774Z,71.50
2017-07-30T21:57:38.382Z,71.30
2017-07-30T22:00:06.668Z,71.20
2017-07-30T22:02:34.227Z,71.50
2017-07-30T22:05:01.893Z,71.10
2017-07-30T22:07:29.582Z,70.90
2017-07-30T22:09:57.925Z,70.90
2017-07-30T22:12:25.455Z,70.70
2017-07-30T22:14:53.014Z,70.70
2017-07-30T22:17:20.674Z,70.80
2017-07-30T22:19:49.359Z,70.70
2017-07-30T22:22:17.052Z,70.50
2017-07-30T22:24:44.691Z,70.70
2017-07-30T22:27:12.580Z,70.60
2017-07-30T22:29:40.626Z,70.70
2017-07-30T22:32:08.907Z,70.70
2017-07-30T22:34:36.427Z,71.10
2017-07-30T22:37:03.995Z,71.90
2017-07-30T22:39:31.514Z,72.00
2017-07-30T22:44:28.197Z,72.30
2017-07-30T22:46:55.862Z,72.00
2017-07-30T22:49:23.938Z,72.00
2017-07-30T22:51:51.458Z,72.10
2017-07-30T22:54:19.734Z,72.60
2017-07-30T22:56:48.015Z,72.50
2017-07-30T22:59:15.598Z,72.20
2017-07-30T23:01:43.890Z,72.20
2017-07-30T23:04:11.783Z,72.20
2017-07-30T23:06:39.310Z,72.20
2017-07-30T23:09:07.203Z,72.00
2017-07-30T23:11:34.728Z,72.00
2017-07-30T23:14:04.407Z,72.20
2017-07-30T23:16:32.690Z,72.00
2017-07-30T23:19:00.557Z,71.80
2017-07-30T23:21:28.213Z,71.80
2017-07-30T23:23:56.119Z,72.00
2017-07-30T23:26:24.015Z,71.80
2017-07-30T23:28:51.611Z,71.80
2017-07-30T23:31:19.230Z,72.10
2017-07-30T23:33:47.895Z,71.70
2017-07-30T23:36:15.786Z,71.70
2017-07-30T23:38:43.696Z,71.80
2017-07-30T23:41:11.318Z,72.00
2017-07-30T23:43:38.983Z,71.90
2017-07-30T23:46:07.996Z,72.00
2017-07-30T23:48:36.283Z,72.10
2017-07-30T23:51:03.780Z,72.30
2017-07-30T23:53:31.274Z,72.20
2017-07-30T23:55:59.561Z,72.20
2017-07-30T23:58:27.602Z,72.00
